• Join FlightAware (Why Join?)
  • Login
  • US Flag 
Gobble Gobble! 
05:44AM EST


 

Airport Tracker/Info


-or-


 

Live Flight TrackerFlight Track Log ✈ USC105 ✈ 2013年 05月 06日 ✈ KBKL - KYIP

Flight Track Log - Related Links

Times and Time Zones

All times are in EDT time to prevent confusion due to time zone crossing. See the USC105 flight status page for this flight to view local times or setup timezone preferences in your user account.

Time Position Orientation Groundspeed Altitude Reporting Facility
EDT Latitude Longitude Course Direction KTS MPH feet Rate Location/Type
11:06PM 41.5400 -81.6594 31° Northeast 140 161 1,600  Level Cleveland Center
11:07PM 41.5667 -81.7017 310° West 153 176 2,800 1,140 Climbing Cleveland Center
11:08PM 41.5767 -81.7517 285° West 149 171 4,000 1,140 Climbing Cleveland Center
11:09PM 41.5867 -81.8047 284° West 146 168 5,100 1,020 Climbing Cleveland Center
11:11PM 41.6067 -81.8633 295° West 146 168 6,200 960 Climbing Cleveland Center
11:12PM 41.6269 -81.9167 297° West 163 188 7,200 840 Climbing Cleveland Center
11:13PM 41.6450 -81.9697 294° West 162 186 8,000 360 Climbing Cleveland Center
11:14PM 41.6714 -82.0369 298° West 216 249 8,000  Level Cleveland Center
11:15PM 41.7017 -82.1044 301° West 205 236 8,000  Level Cleveland Center
11:16PM 41.7281 -82.1692 299° West 208 239 8,000  Level Cleveland Center
11:17PM 41.7522 -82.2336 297° West 207 238 8,000  Level Cleveland Center
11:17PM 41.7703 -82.2758 300° West 207 238 8,000  Level Cleveland Center
11:18PM 41.8022 -82.3658 295° West 207 238 8,000  Level Cleveland Center
11:19PM 41.8283 -82.4306 298° West 208 239 8,000  Level Cleveland Center
11:21PM 41.8564 -82.5067 296° West 207 238 8,000  Level Cleveland Center
11:22PM 41.8842 -82.5744 299° West 207 238 8,000  Level Cleveland Center
11:23PM 41.9017 -82.6506 287° West 204 235 8,000  Level Cleveland Center
11:24PM 41.9192 -82.7236 288° West 204 235 8,000  Level Cleveland Center
11:25PM 41.9386 -82.7967 290° West 204 235 8,000  Level Cleveland Center
11:25PM 41.9519 -82.8642 285° West 203 234 8,000 -360 Level Cleveland Center
11:26PM 41.9672 -82.9264 288° West 210 242 7,400 -840 Descending Cleveland Center
11:27PM 41.9864 -83.0108 287° West 224 258 6,500 -840 Descending Cleveland Center
11:28PM 42.0056 -83.0897 288° West 222 255 5,700 -780 Descending Cleveland Center
11:30PM 42.0286 -83.1744 290° West 219 252 4,900 -720 Descending Cleveland Center
11:31PM 42.0478 -83.2508 289° West 211 243 4,200 -780 Descending Cleveland Center
11:31PM 42.0650 -83.3131 290° West 213 245 3,500 -720 Descending Cleveland Center
11:32PM 42.0842 -83.3894 289° West 207 238 3,000 -300 Descending Cleveland Center
11:33PM 42.0969 -83.4544 285° West 186 214 3,000  Level Cleveland Center
11:34PM 42.1161 -83.5197 292° West 183 211 3,000 -300 Level Cleveland Center
11:35PM 42.1461 -83.5769 305° West 192 221 2,400 -660 Descending Cleveland Center
11:36PM 42.1914 -83.5961 343° North 176 203 1,700 -720 Descending Cleveland Center
11:37PM 42.2258 -83.5528 43° Northeast 148 170 1,000 -720 Descending Cleveland Center
11:39PM 42.2333 -83.5167 North  Level FlightAware Approximate
11:46PM 42.2393 -83.5310 North  Level Estimated
11:47PM 42.2393 -83.5310 North  Level Estimated